HADR/DIR METAR and TAF weather

Enter ICAO airport designator
Station Type Date Time Source
HADR METAR 2018/11/28 08:00 UTC NOAA

HADR 280800Z 11004KT 9999 FEW026 SCT060 26/14 Q1023


Station Type Date Time Source
HADR Decoded METAR 2018/11/28 08:00 UTC NOAA

Dire Dawa, Ethiopia (HADR) 09-36N 041-52E 1146M
Nov 28, 2018 - 03:00 AM EST / 2018.11.28 0800 UTC
Wind: from the ESE (110 degrees) at 5 MPH (4 KT):0
Visibility: greater than 7 mile(s):0
Sky conditions: partly cloudy
Temperature: 78 F (26 C)
Dew Point: 57 F (14 C)
Relative Humidity: 47%
Pressure (altimeter): 30.21 in. Hg (1023 hPa)
ob: HADR 280800Z 11004KT 9999 FEW026 SCT060 26/14 Q1023
cycle: 8

Station Type Date Time Source
HADR TAF 2019/04/25 12:48 UTC NOAA

TAF HADR 250930Z 2512/2618 VRB09KT 9999 SCT030 BKN090
BECMG 2512/2515 03010KT 9000 -HZ BKN030
BECMG 2516/2519 08009KT SCT029

Example: see airport list